Time;durP1;ratioP1;P1;durP2;ratioP2;P2;SDS_P1;SDS_P2;PMS_P1;PMS_P2;Temp;Humidity;BMP_temperature;BMP_pressure;BME280_temperature;BME280_humidity;BME280_pressure;Samples;Min_cycle;Max_cycle;Signal;HPM_P1;HPM_P2
2022/06/24 00:00:42;;;;;;;;;3.00;3.00;;;;;26.29;38.61;100566.31;5063040;28;63558;-53
2022/06/24 00:03:15;;;;;;;;;5.67;3.33;;;;;26.31;40.77;100556.91;5062986;27;45331;-53
2022/06/24 00:05:40;;;;;;;;;4.00;4.00;;;;;26.30;42.18;100538.88;5063696;28;45464;-55
2022/06/24 00:08:07;;;;;;;;;6.00;3.33;;;;;26.20;42.51;100538.28;5063720;28;71492;-54
2022/06/24 00:10:34;;;;;;;;;5.00;4.33;;;;;26.06;43.17;100542.66;5063271;28;45532;-54
2022/06/24 00:13:00;;;;;;;;;3.33;2.33;;;;;25.89;42.95;100559.16;5066048;28;45568;-54
2022/06/24 00:15:27;;;;;;;;;3.67;3.67;;;;;25.71;43.86;100562.19;5062663;28;45735;-53
2022/06/24 00:17:52;;;;;;;;;6.67;3.67;;;;;25.53;43.74;100575.25;5062777;28;45551;-53
2022/06/24 00:20:19;;;;;;;;;5.67;4.67;;;;;25.40;45.19;100570.41;5063007;27;45516;-53
2022/06/24 00:22:50;;;;;;;;;4.67;4.67;;;;;25.36;45.53;100559.03;5063483;28;45727;-53
2022/06/24 00:25:23;;;;;;;;;4.00;4.00;;;;;25.35;46.58;100561.94;5060197;28;45269;-53
2022/06/24 00:28:05;;;;;;;;;5.00;5.00;;;;;25.36;48.08;100553.56;5060468;28;45479;-54
2022/06/24 00:30:37;;;;;;;;;5.33;4.00;;;;;25.34;47.68;100552.88;5064547;28;45465;-51
2022/06/24 00:33:11;;;;;;;;;4.67;3.33;;;;;25.31;48.14;100547.78;5065725;28;45491;-52
2022/06/24 00:35:39;;;;;;;;;7.33;6.33;;;;;25.28;49.39;100545.44;5066970;28;45546;-54
2022/06/24 00:38:21;;;;;;;;;5.33;5.33;;;;;25.26;49.60;100544.75;5067273;28;47123;-54
2022/06/24 00:40:47;;;;;;;;;4.67;4.33;;;;;25.22;49.76;100549.72;5067130;27;46571;-52
2022/06/24 00:43:24;;;;;;;;;4.00;4.00;;;;;25.17;50.12;100549.41;5069057;27;45469;-55
2022/06/24 00:45:51;;;;;;;;;4.00;4.00;;;;;25.15;50.55;100551.47;5069241;28;45841;-53
2022/06/24 00:48:19;;;;;;;;;4.33;4.33;;;;;25.16;50.67;100555.88;5068366;28;46564;-52
2022/06/24 00:50:46;;;;;;;;;6.00;5.67;;;;;25.16;50.64;100557.75;5082549;27;71794;-54
2022/06/24 00:53:12;;;;;;;;;4.00;4.00;;;;;25.16;50.76;100561.34;5066358;28;45852;-51
2022/06/24 00:55:39;;;;;;;;;6.00;4.67;;;;;25.14;50.98;100557.09;5067224;28;45470;-52
2022/06/24 00:58:05;;;;;;;;;6.00;5.67;;;;;25.12;51.60;100559.13;5068362;28;46482;-53
2022/06/24 01:00:32;;;;;;;;;7.33;5.67;;;;;25.09;51.53;100554.91;5064422;28;45659;-53
2022/06/24 01:03:04;;;;;;;;;7.33;5.67;;;;;25.06;51.70;100553.38;5067018;27;45546;-51
2022/06/24 01:05:31;;;;;;;;;4.00;4.00;;;;;25.05;51.53;100553.56;5067375;28;45454;-54
2022/06/24 01:07:58;;;;;;;;;5.00;5.00;;;;;25.03;51.04;100542.88;5069110;27;46043;-51
2022/06/24 01:10:24;;;;;;;;;4.67;4.67;;;;;25.03;50.45;100552.88;5065510;28;45425;-51
2022/06/24 01:12:50;;;;;;;;;3.33;3.33;;;;;25.00;50.44;100543.19;5062186;28;45406;-52
2022/06/24 01:15:16;;;;;;;;;3.67;3.67;;;;;25.00;50.01;100540.47;5061787;28;45462;-51
2022/06/24 01:17:41;;;;;;;;;4.33;4.33;;;;;24.98;50.15;100545.25;5070160;27;46323;-52
2022/06/24 01:20:11;;;;;;;;;2.33;2.00;;;;;24.96;49.93;100543.75;5059749;27;45501;-52
2022/06/24 01:22:36;;;;;;;;;5.67;5.00;;;;;24.96;50.00;100538.31;5054866;28;45299;-52
2022/06/24 01:25:02;;;;;;;;;5.67;5.33;;;;;24.97;50.08;100534.56;5058644;28;45588;-50
2022/06/24 01:27:28;;;;;;;;;3.00;3.00;;;;;24.96;49.60;100528.25;5058558;28;45938;-50
2022/06/24 01:29:54;;;;;;;;;5.33;5.33;;;;;24.94;49.21;100531.16;5060758;28;45398;-53
2022/06/24 01:32:20;;;;;;;;;3.33;3.33;;;;;24.92;49.58;100527.75;5063511;28;45351;-54
2022/06/24 01:34:45;;;;;;;;;5.33;4.33;;;;;24.91;49.57;100527.94;5064709;28;45318;-54
2022/06/24 01:37:10;;;;;;;;;6.67;4.67;;;;;24.90;49.18;100527.13;5059075;28;45549;-53
2022/06/24 01:39:36;;;;;;;;;5.00;4.33;;;;;24.90;49.28;100526.25;5066475;28;45298;-53
2022/06/24 01:42:01;;;;;;;;;5.00;5.00;;;;;24.88;49.02;100528.31;5075814;27;45857;-54
2022/06/24 01:44:27;;;;;;;;;4.00;4.00;;;;;24.85;48.58;100529.50;5073363;28;45695;-52
2022/06/24 01:46:52;;;;;;;;;4.00;3.33;;;;;24.80;48.50;100531.03;5068856;27;45481;-53
2022/06/24 01:49:18;;;;;;;;;4.67;4.00;;;;;24.74;48.78;100557.09;5063052;28;71856;-51
2022/06/24 01:51:45;;;;;;;;;2.67;2.67;;;;;24.67;48.83;100588.72;5066377;28;55141;-54
2022/06/24 01:54:10;;;;;;;;;3.33;3.33;;;;;24.54;50.90;100590.06;5066667;28;45590;-55
2022/06/24 01:56:36;;;;;;;;;2.67;2.67;;;;;24.35;52.79;100588.56;5064848;28;70368;-56
2022/06/24 01:59:01;;;;;;;;;5.00;5.00;;;;;24.07;52.97;100586.22;5066240;28;45431;-55
2022/06/24 02:01:27;;;;;;;;;6.00;4.33;;;;;23.91;53.69;100597.09;5068303;28;45434;-55
2022/06/24 02:03:53;;;;;;;;;5.00;5.00;;;;;23.80;53.49;100587.38;5069980;28;64682;-54
2022/06/24 02:06:18;;;;;;;;;4.67;4.00;;;;;23.69;54.69;100590.41;5058808;28;46274;-55
2022/06/24 02:08:44;;;;;;;;;3.33;3.33;;;;;23.62;54.52;100576.66;5058540;28;46451;-53
2022/06/24 02:13:56;;;;;;;;;5.33;4.33;;;;;23.55;54.39;100553.94;5067259;28;45521;-52
2022/06/24 02:16:21;;;;;;;;;5.67;4.00;;;;;23.53;54.73;100562.25;5064763;28;45885;-53
2022/06/24 02:18:49;;;;;;;;;4.67;3.00;;;;;23.51;54.12;100558.03;5066307;28;45547;-54
2022/06/24 02:21:15;;;;;;;;;3.33;3.33;;;;;23.42;54.05;100557.97;5065517;28;45599;-54
2022/06/24 02:23:41;;;;;;;;;3.00;3.00;;;;;23.38;54.14;100558.50;5064395;28;45742;-55
2022/06/24 02:26:06;;;;;;;;;4.00;4.00;;;;;23.37;53.92;100551.38;5065264;28;46240;-52
2022/06/24 02:28:32;;;;;;;;;3.00;3.00;;;;;23.35;54.37;100553.38;5066613;28;45448;-55
2022/06/24 02:31:01;;;;;;;;;1.33;1.33;;;;;23.34;54.94;100552.56;5066015;27;60710;-53
2022/06/24 02:33:28;;;;;;;;;1.67;1.67;;;;;23.34;53.96;100574.25;5066129;27;45720;-53
2022/06/24 02:35:53;;;;;;;;;3.33;3.00;;;;;23.31;54.70;100563.75;5069232;28;45719;-55
2022/06/24 02:38:18;;;;;;;;;3.33;3.00;;;;;23.28;55.86;100575.78;5063874;28;72884;-56
2022/06/24 02:40:51;;;;;;;;;2.67;2.67;;;;;23.22;55.55;100570.13;5067441;27;45637;-56
2022/06/24 02:43:26;;;;;;;;;2.67;2.67;;;;;23.07;55.99;100546.34;5065401;27;45611;-55
2022/06/24 02:46:00;;;;;;;;;3.00;3.00;;;;;23.04;57.19;100532.28;5066018;28;45868;-53
2022/06/24 02:48:25;;;;;;;;;3.00;3.00;;;;;23.04;56.74;100527.69;5061892;28;45463;-54
2022/06/24 02:50:53;;;;;;;;;5.00;3.00;;;;;23.03;56.24;100539.53;5064082;27;45166;-51
2022/06/24 02:53:19;;;;;;;;;2.00;2.00;;;;;23.02;56.25;100540.56;5051005;28;45340;-53
2022/06/24 02:55:47;;;;;;;;;3.33;2.67;;;;;23.00;56.10;100544.44;5053732;28;46212;-54
2022/06/24 02:58:13;;;;;;;;;4.33;4.33;;;;;22.96;57.31;100536.63;5061412;28;45216;-53
2022/06/24 03:00:41;;;;;;;;;3.00;3.00;;;;;22.95;57.03;100528.69;5053235;28;45638;-53
2022/06/24 03:03:08;;;;;;;;;4.33;2.67;;;;;22.90;56.98;100526.44;5069794;28;45315;-51
2022/06/24 03:05:33;;;;;;;;;2.67;2.67;;;;;22.87;56.88;100528.66;5062592;28;45386;-54
2022/06/24 03:07:59;;;;;;;;;3.33;3.33;;;;;22.87;57.28;100531.38;5051951;27;52833;-54
2022/06/24 03:10:24;;;;;;;;;2.33;2.00;;;;;22.87;56.74;100525.94;5053358;28;65677;-54
2022/06/24 03:12:50;;;;;;;;;5.33;3.67;;;;;22.87;56.79;100524.06;5051826;28;45736;-54
2022/06/24 03:15:15;;;;;;;;;2.00;2.00;;;;;22.86;57.02;100533.22;5050396;28;46350;-54
2022/06/24 03:17:41;;;;;;;;;2.00;2.00;;;;;22.84;57.31;100534.38;5067749;28;45294;-51
2022/06/24 03:20:08;;;;;;;;;3.67;3.00;;;;;22.83;56.99;100527.25;5064683;27;68869;-51
2022/06/24 03:22:33;;;;;;;;;4.00;3.00;;;;;22.80;56.99;100520.31;5061742;28;45541;-53
2022/06/24 03:24:59;;;;;;;;;3.00;3.00;;;;;22.74;56.29;100531.81;5065366;27;46008;-53
2022/06/24 03:27:24;;;;;;;;;2.67;2.67;;;;;22.66;56.50;100523.63;5064437;27;45477;-51
2022/06/24 03:29:49;;;;;;;;;2.67;2.67;;;;;22.63;56.79;100524.81;5067599;28;59787;-52
2022/06/24 03:32:15;;;;;;;;;2.67;2.67;;;;;22.66;56.82;100520.94;5062387;27;45622;-54
2022/06/24 03:34:40;;;;;;;;;4.33;3.00;;;;;22.67;56.31;100528.06;5050984;28;70387;-53
2022/06/24 03:37:05;;;;;;;;;3.00;3.00;;;;;22.67;56.43;100520.78;5058432;28;62270;-53
2022/06/24 03:39:31;;;;;;;;;4.00;4.00;;;;;22.70;57.52;100519.63;5058379;28;60509;-50
2022/06/24 03:41:56;;;;;;;;;2.33;2.33;;;;;22.67;57.41;100522.63;5051687;28;65620;-52
2022/06/24 03:44:21;;;;;;;;;4.67;2.00;;;;;22.63;56.98;100525.69;5062164;28;69440;-53
2022/06/24 03:46:47;;;;;;;;;3.00;3.00;;;;;22.61;57.37;100521.44;5050739;28;66391;-51
2022/06/24 03:49:12;;;;;;;;;3.00;3.00;;;;;22.60;57.21;100522.44;5050891;28;45698;-53
2022/06/24 03:51:37;;;;;;;;;3.00;3.00;;;;;22.60;57.43;100525.16;5056683;28;45653;-51
2022/06/24 03:54:03;;;;;;;;;3.00;2.33;;;;;22.59;57.50;100521.59;5051680;28;46255;-51
2022/06/24 03:56:28;;;;;;;;;3.33;3.00;;;;;22.60;56.72;100528.69;5058470;28;45449;-50
2022/06/24 03:58:54;;;;;;;;;2.00;2.00;;;;;22.60;57.08;100520.56;5058439;28;45302;-50
2022/06/24 04:01:19;;;;;;;;;3.00;2.67;;;;;22.63;57.03;100524.81;5059000;28;64222;-53
2022/06/24 04:03:44;;;;;;;;;6.00;4.00;;;;;22.66;57.57;100512.78;5071579;27;45494;-52
2022/06/24 04:06:10;;;;;;;;;3.33;1.33;;;;;22.68;57.51;100508.06;5052216;28;69669;-53
2022/06/24 04:08:35;;;;;;;;;2.33;2.33;;;;;22.68;57.76;100505.38;5056663;28;62497;-51
2022/06/24 04:11:14;;;;;;;;;4.00;4.00;;;;;22.65;57.02;100505.69;5059201;28;45506;-50
2022/06/24 04:13:40;;;;;;;;;4.00;3.00;;;;;22.62;56.98;100513.13;5059406;28;46034;-51
2022/06/24 04:16:05;;;;;;;;;4.00;3.00;;;;;22.60;57.51;100509.72;5060521;28;45370;-50
2022/06/24 04:18:31;;;;;;;;;5.00;3.33;;;;;22.56;57.07;100516.47;5062180;28;45288;-50
2022/06/24 04:20:57;;;;;;;;;5.00;4.00;;;;;22.54;57.37;100510.41;5060209;27;45724;-50
2022/06/24 04:23:22;;;;;;;;;4.00;3.00;;;;;22.50;57.62;100514.41;5052226;28;45564;-50
2022/06/24 04:25:48;;;;;;;;;3.33;2.33;;;;;22.47;57.02;100522.88;5058354;28;45328;-51
2022/06/24 04:28:13;;;;;;;;;4.67;3.00;;;;;22.47;57.51;100533.72;5058372;28;45355;-50
2022/06/24 04:30:38;;;;;;;;;4.00;4.00;;;;;22.48;57.60;100523.75;5047943;28;70103;-50
2022/06/24 04:33:04;;;;;;;;;4.00;2.33;;;;;22.50;58.06;100524.41;5057878;28;46013;-50
2022/06/24 04:35:29;;;;;;;;;3.67;3.00;;;;;22.51;57.81;100535.09;5047687;28;45394;-53
2022/06/24 04:37:54;;;;;;;;;3.33;3.33;;;;;22.51;57.27;100526.94;5052239;28;66606;-50
2022/06/24 04:40:20;;;;;;;;;3.00;3.00;;;;;22.51;57.46;100534.25;5050596;28;45384;-53
2022/06/24 04:42:46;;;;;;;;;3.00;3.00;;;;;22.46;57.17;100530.16;5048330;28;74606;-53
2022/06/24 04:45:11;;;;;;;;;3.67;3.33;;;;;22.46;57.66;100532.88;5049963;28;45302;-51
2022/06/24 04:47:37;;;;;;;;;1.67;1.67;;;;;22.49;57.60;100522.72;5049745;28;63831;-50
2022/06/24 04:50:04;;;;;;;;;3.00;3.00;;;;;22.51;57.53;100523.41;5057351;28;45549;-50
2022/06/24 04:52:30;;;;;;;;;6.67;6.33;;;;;22.52;57.97;100525.13;5046108;28;47183;-49
2022/06/24 04:54:56;;;;;;;;;4.00;4.00;;;;;22.52;57.55;100530.53;5051183;28;45345;-53
2022/06/24 04:57:21;;;;;;;;;4.67;4.33;;;;;22.53;57.39;100530.38;5051672;28;67624;-53
2022/06/24 04:59:46;;;;;;;;;3.00;3.00;;;;;22.57;57.61;100529.03;5046823;28;45486;-51
2022/06/24 05:02:11;;;;;;;;;3.33;3.33;;;;;22.57;57.70;100526.31;5055885;28;73459;-50
2022/06/24 05:04:37;;;;;;;;;3.00;3.00;;;;;22.57;57.03;100529.03;5060427;28;72118;-53
2022/06/24 05:07:04;;;;;;;;;3.00;3.00;;;;;22.57;57.50;100518.19;5060650;27;60504;-53
2022/06/24 05:09:29;;;;;;;;;4.67;2.33;;;;;22.54;57.66;100517.66;5057579;28;45861;-50
2022/06/24 05:11:54;;;;;;;;;3.00;3.00;;;;;22.53;57.41;100524.09;5057792;28;46921;-52
2022/06/24 05:14:20;;;;;;;;;4.67;3.67;;;;;22.51;57.46;100526.94;5056624;28;71822;-51
2022/06/24 05:16:45;;;;;;;;;2.67;2.67;;;;;22.46;57.15;100522.03;5069068;28;45699;-51
2022/06/24 05:19:11;;;;;;;;;3.33;3.33;;;;;22.43;57.97;100521.50;5061500;28;45688;-51
2022/06/24 05:21:36;;;;;;;;;6.33;4.33;;;;;22.37;57.67;100520.28;5060437;28;46041;-53
2022/06/24 05:24:02;;;;;;;;;5.33;3.33;;;;;22.34;58.04;100519.72;5055769;28;45378;-51
2022/06/24 05:26:27;;;;;;;;;4.67;4.67;;;;;22.30;57.23;100520.03;5060175;28;45399;-50
2022/06/24 05:28:53;;;;;;;;;4.33;3.33;;;;;22.29;58.16;100536.44;5059571;28;65261;-54
2022/06/24 05:31:18;;;;;;;;;5.00;5.00;;;;;22.29;57.97;100531.91;5060220;28;71078;-52
2022/06/24 05:33:44;;;;;;;;;5.00;4.67;;;;;22.36;57.62;100540.25;5058022;28;45368;-54
2022/06/24 05:36:09;;;;;;;;;4.00;4.00;;;;;22.37;57.74;100531.13;5065604;28;45431;-54
2022/06/24 05:38:35;;;;;;;;;5.00;4.00;;;;;22.44;57.61;100525.91;5068917;27;45472;-49
2022/06/24 05:41:02;;;;;;;;;5.00;5.00;;;;;22.48;57.49;100519.16;5061162;28;45224;-50
2022/06/24 05:43:28;;;;;;;;;4.67;2.67;;;;;22.45;57.11;100527.63;5060593;28;45316;-52
2022/06/24 05:45:53;;;;;;;;;3.33;3.33;;;;;22.46;57.22;100527.47;5065616;28;63279;-50
2022/06/24 05:48:18;;;;;;;;;5.33;3.33;;;;;22.48;57.72;100535.41;5057690;27;45568;-50
2022/06/24 05:50:44;;;;;;;;;4.33;4.33;;;;;22.50;57.65;100530.66;5060038;28;71346;-50
2022/06/24 05:55:59;;;;;;;;;5.67;5.67;;;;;22.43;57.13;100549.44;5065163;28;45549;-52
2022/06/24 05:58:28;;;;;;;;;5.00;4.00;;;;;22.45;57.35;100541.16;5060698;28;45272;-50
2022/06/24 06:00:54;;;;;;;;;4.67;4.00;;;;;22.44;57.27;100545.72;5044806;28;46187;-50
2022/06/24 06:03:21;;;;;;;;;4.00;4.00;;;;;22.44;57.15;100551.13;5062856;28;45656;-49
2022/06/24 06:05:47;;;;;;;;;7.00;5.67;;;;;22.36;57.20;100552.94;5056201;27;45373;-50
2022/06/24 06:08:12;;;;;;;;;5.67;3.67;;;;;22.31;56.87;100545.28;5061154;28;45438;-48
2022/06/24 06:10:39;;;;;;;;;5.67;4.33;;;;;22.33;57.01;100547.81;5061026;28;46410;-51
2022/06/24 06:13:04;;;;;;;;;5.00;4.00;;;;;22.33;57.42;100559.50;5047213;28;45348;-48
2022/06/24 06:15:30;;;;;;;;;5.00;5.00;;;;;22.27;57.10;100552.88;5060143;28;45286;-52
2022/06/24 06:17:59;;;;;;;;;5.00;3.00;;;;;22.23;56.78;100553.38;5060564;28;45299;-49
2022/06/24 06:20:25;;;;;;;;;5.67;4.33;;;;;22.24;57.24;100549.63;5056917;28;46196;-51
2022/06/24 06:22:50;;;;;;;;;3.33;3.33;;;;;22.26;57.74;100553.88;5064839;28;67183;-51
2022/06/24 06:25:16;;;;;;;;;4.67;4.67;;;;;22.31;57.25;100554.25;5062519;28;58527;-50
2022/06/24 06:27:41;;;;;;;;;4.00;4.00;;;;;22.28;57.20;100551.88;5059228;27;45666;-50
2022/06/24 06:30:07;;;;;;;;;3.33;3.33;;;;;22.28;57.03;100556.41;5064347;28;47715;-49
2022/06/24 06:32:32;;;;;;;;;4.67;4.33;;;;;22.34;57.28;100560.38;5050862;28;45342;-50
2022/06/24 06:34:58;;;;;;;;;2.33;2.33;;;;;22.37;56.61;100554.66;5048045;28;63627;-51
2022/06/24 06:37:23;;;;;;;;;4.33;2.67;;;;;22.38;56.95;100567.19;5050255;28;45351;-49
2022/06/24 06:39:49;;;;;;;;;5.00;3.33;;;;;22.36;56.58;100561.94;5066654;28;70468;-49
2022/06/24 06:42:14;;;;;;;;;2.67;2.67;;;;;22.38;56.55;100569.91;5061930;27;72118;-52
2022/06/24 06:44:39;;;;;;;;;3.33;3.33;;;;;22.36;56.38;100567.34;5062474;28;45255;-49
2022/06/24 06:47:05;;;;;;;;;5.33;4.00;;;;;22.40;56.40;100560.59;5050985;28;64078;-57
2022/06/24 06:49:32;;;;;;;;;6.00;3.00;;;;;22.44;56.10;100561.97;5068728;28;56792;-55
2022/06/24 06:51:59;;;;;;;;;3.00;3.00;;;;;22.52;56.21;100568.47;5059909;28;45286;-56
2022/06/24 06:54:25;;;;;;;;;4.00;4.00;;;;;22.57;56.22;100566.13;5059011;28;45450;-55
2022/06/24 06:56:50;;;;;;;;;4.00;4.00;;;;;22.60;55.91;100563.91;5058063;28;68138;-55
2022/06/24 06:59:15;;;;;;;;;3.00;3.00;;;;;22.61;55.69;100573.75;5053854;28;45929;-56
2022/06/24 07:01:41;;;;;;;;;3.00;2.67;;;;;22.58;55.80;100567.81;5051019;28;45400;-55
2022/06/24 07:04:06;;;;;;;;;4.00;3.67;;;;;22.55;55.63;100568.97;5060742;28;45778;-56
2022/06/24 07:06:31;;;;;;;;;4.67;3.33;;;;;22.50;55.60;100568.59;5057826;28;68613;-56
2022/06/24 07:08:57;;;;;;;;;3.33;3.33;;;;;22.52;55.62;100563.88;5057262;28;73870;-56
2022/06/24 07:11:22;;;;;;;;;1.67;1.67;;;;;22.54;55.57;100572.72;5057878;28;67353;-54
2022/06/24 07:13:47;;;;;;;;;5.00;3.00;;;;;22.56;55.07;100564.41;5057583;28;66530;-53
2022/06/24 07:16:13;;;;;;;;;5.67;5.33;;;;;22.55;55.92;100568.13;5058219;28;45477;-56
2022/06/24 07:18:38;;;;;;;;;4.00;4.00;;;;;22.59;55.54;100559.53;5048477;28;50161;-55
2022/06/24 07:21:04;;;;;;;;;3.33;2.00;;;;;22.62;55.42;100559.22;5062472;28;48517;-53
2022/06/24 07:23:29;;;;;;;;;3.00;3.00;;;;;22.69;55.54;100558.56;5049287;28;61736;-55
2022/06/24 07:25:58;;;;;;;;;5.00;2.67;;;;;22.69;55.39;100561.28;5058597;27;67854;-55
2022/06/24 07:28:28;;;;;;;;;2.33;2.33;;;;;22.71;55.44;100556.53;5060081;27;45520;-56
2022/06/24 07:30:53;;;;;;;;;4.00;4.00;;;;;22.72;55.69;100550.97;5055155;28;45591;-55
2022/06/24 07:33:19;;;;;;;;;3.67;3.67;;;;;22.83;55.29;100544.41;5062130;27;52792;-54
2022/06/24 07:35:44;;;;;;;;;4.00;4.00;;;;;23.06;55.35;100549.22;5057530;28;45371;-55
2022/06/24 07:38:10;;;;;;;;;3.33;3.33;;;;;23.30;54.55;100534.91;5059795;28;72003;-55
2022/06/24 07:40:35;;;;;;;;;4.00;4.00;;;;;23.50;53.73;100535.44;5055836;28;65796;-54
2022/06/24 07:43:00;;;;;;;;;2.67;2.00;;;;;23.69;53.60;100538.84;5057374;28;67514;-54
2022/06/24 07:45:26;;;;;;;;;6.00;3.00;;;;;23.94;53.56;100532.44;5056137;28;63293;-55
2022/06/24 07:47:52;;;;;;;;;4.00;4.00;;;;;24.24;52.94;100542.75;5056065;28;64138;-53
2022/06/24 07:50:17;;;;;;;;;3.00;3.00;;;;;24.38;52.55;100541.19;5054363;28;45647;-56
2022/06/24 07:52:43;;;;;;;;;4.33;4.33;;;;;24.50;52.37;100536.25;5051521;28;45601;-56
2022/06/24 07:57:52;;;;;;;;;3.00;3.00;;;;;24.60;51.91;100543.16;5050701;28;45812;-54
2022/06/24 08:00:18;;;;;;;;;4.00;3.00;;;;;24.59;52.16;100543.34;5051081;28;64713;-55
2022/06/24 08:02:43;;;;;;;;;3.00;3.00;;;;;24.71;51.38;100549.28;5054040;27;45497;-55
2022/06/24 08:05:08;;;;;;;;;4.00;3.00;;;;;24.77;50.77;100538.56;5054171;28;46352;-55
2022/06/24 08:07:34;;;;;;;;;2.50;2.50;;;;;24.81;50.64;100539.06;5049688;28;45989;-54
2022/06/24 08:09:59;;;;;;;;;3.00;2.25;;;;;24.90;51.17;100537.13;5052118;28;70263;-54
2022/06/24 08:12:25;;;;;;;;;2.33;2.33;;;;;25.03;49.60;100539.28;5055455;28;65061;-55
2022/06/24 08:14:50;;;;;;;;;1.75;1.75;;;;;25.21;50.68;100531.72;5057292;28;51210;-55
2022/06/24 08:17:15;;;;;;;;;2.00;2.00;;;;;25.35;49.42;100535.53;5060948;28;68401;-54
2022/06/24 08:19:41;;;;;;;;;3.25;3.00;;;;;25.43;48.86;100537.38;5059889;28;45370;-55
2022/06/24 08:22:07;;;;;;;;;3.25;3.25;;;;;25.48;48.12;100537.69;5054915;28;45543;-55
2022/06/24 08:24:32;;;;;;;;;3.25;3.25;;;;;25.34;47.98;100541.16;5059603;28;68072;-63
2022/06/24 08:26:58;;;;;;;;;5.00;3.50;;;;;25.22;48.31;100540.72;5057218;28;46830;-64
2022/06/24 08:29:23;;;;;;;;;2.00;2.00;;;;;25.02;47.89;100551.19;5056849;28;71565;-63
2022/06/24 08:31:49;;;;;;;;;2.75;2.75;;;;;24.88;47.43;100542.75;5045596;28;45514;-64
2022/06/24 08:34:15;;;;;;;;;3.75;2.25;;;;;24.89;47.94;100544.44;5060322;28;45331;-64
2022/06/24 08:36:40;;;;;;;;;2.25;2.25;;;;;24.92;48.03;100546.81;5056163;28;46066;-64
2022/06/24 08:39:06;;;;;;;;;3.00;3.00;;;;;24.93;48.10;100531.34;5058087;28;67808;-63
2022/06/24 08:41:32;;;;;;;;;3.00;1.00;;;;;24.92;47.72;100530.47;5055486;28;45403;-64
2022/06/24 08:43:58;;;;;;;;;2.25;2.25;;;;;24.94;48.19;100533.06;5057458;28;45391;-64
2022/06/24 08:46:25;;;;;;;;;3.75;2.50;;;;;24.96;47.16;100530.16;5057287;28;46958;-64
2022/06/24 08:48:51;;;;;;;;;2.00;2.00;;;;;24.94;47.31;100535.78;5056079;28;45646;-64
2022/06/24 08:51:17;;;;;;;;;1.50;1.50;;;;;24.94;46.84;100531.16;5056212;28;45497;-64
2022/06/24 08:53:44;;;;;;;;;1.25;1.00;;;;;24.93;47.51;100531.34;5057601;28;45473;-64
2022/06/24 08:56:10;;;;;;;;;3.00;2.00;;;;;24.97;46.53;100527.25;5059285;28;46996;-63
2022/06/24 08:58:36;;;;;;;;;0.75;0.75;;;;;25.03;46.38;100526.53;5059332;28;45612;-64
2022/06/24 09:01:01;;;;;;;;;0.00;0.00;;;;;25.08;45.36;100524.13;5059158;28;45374;-64
2022/06/24 09:03:26;;;;;;;;;1.67;1.00;;;;;25.09;46.14;100522.25;5059732;28;45245;-65
2022/06/24 09:05:52;;;;;;;;;3.25;1.25;;;;;25.17;46.23;100515.91;5053228;27;73103;-64
2022/06/24 09:08:17;;;;;;;;;2.00;0.25;;;;;25.36;46.15;100510.03;5054279;28;46697;-65
2022/06/24 09:11:06;;;;;;;;;1.00;1.00;;;;;25.64;45.99;100512.19;5063001;28;45529;-65
2022/06/24 09:13:31;;;;;;;;;1.50;1.50;;;;;25.98;44.80;100510.88;5047834;28;45593;-65
2022/06/24 09:15:56;;;;;;;;;1.75;1.00;;;;;26.26;44.64;100504.84;5057771;28;46113;-65
2022/06/24 09:18:23;;;;;;;;;4.00;2.00;;;;;26.42;44.28;100504.63;5058424;28;45453;-64
2022/06/24 09:20:49;;;;;;;;;1.00;1.00;;;;;26.52;43.87;100498.91;5056268;28;45392;-65
2022/06/24 09:23:15;;;;;;;;;2.50;1.75;;;;;26.75;44.08;100497.97;5057852;28;45431;-64
2022/06/24 09:25:46;;;;;;;;;2.00;2.00;;;;;27.03;41.22;100498.09;5058643;28;67276;-64
2022/06/24 09:28:20;;;;;;;;;1.25;1.25;;;;;27.25;43.19;100487.22;5058976;28;45486;-65
2022/06/24 09:30:46;;;;;;;;;0.00;0.00;;;;;27.26;42.25;100482.59;5057746;28;45617;-65
2022/06/24 09:33:16;;;;;;;;;1.25;1.00;;;;;27.07;42.03;100485.75;5056292;28;45616;-64
2022/06/24 09:35:41;;;;;;;;;1.00;1.00;;;;;26.94;40.68;100482.06;5062083;27;46248;-64
2022/06/24 09:38:06;;;;;;;;;1.00;1.00;;;;;26.91;41.95;100481.41;5058356;28;52336;-64
2022/06/24 09:40:32;;;;;;;;;3.75;2.00;;;;;27.10;41.48;100481.81;5059659;28;62572;-64
2022/06/24 09:43:05;;;;;;;;;2.00;1.00;;;;;27.46;41.93;100472.75;5056627;28;45567;-63
2022/06/24 09:45:48;;;;;;;;;0.25;0.25;;;;;27.83;40.34;100465.28;5060354;28;46823;-63
2022/06/24 09:48:34;;;;;;;;;1.00;0.50;;;;;28.16;40.64;100461.97;5059838;28;45615;-64
2022/06/24 09:51:04;;;;;;;;;0.00;0.00;;;;;28.45;40.39;100464.66;5066849;28;45767;-63
2022/06/24 09:53:37;;;;;;;;;1.00;1.00;;;;;28.67;39.35;100476.38;5059473;28;45767;-64
2022/06/24 09:56:03;;;;;;;;;1.25;1.25;;;;;28.85;38.70;100464.84;5063930;28;46045;-63
2022/06/24 09:58:29;;;;;;;;;1.25;1.25;;;;;28.97;38.74;100452.25;5080281;27;45426;-64
2022/06/24 10:00:55;;;;;;;;;2.00;0.00;;;;;29.00;38.00;100459.22;5065765;28;45523;-64
2022/06/24 10:03:20;;;;;;;;;0.00;0.00;;;;;29.04;37.92;100464.03;5064210;28;45395;-63
2022/06/24 10:05:50;;;;;;;;;1.50;1.00;;;;;29.18;37.75;100464.09;5060990;28;45454;-63
2022/06/24 10:08:20;;;;;;;;;1.00;1.00;;;;;29.14;37.59;100465.56;5056885;27;45501;-65
2022/06/24 10:10:49;;;;;;;;;0.00;0.00;;;;;28.84;37.43;100468.63;5065067;28;45424;-65
2022/06/24 10:13:23;;;;;;;;;0.75;0.75;;;;;28.54;37.97;100464.28;5058444;28;45489;-65
2022/06/24 10:15:50;;;;;;;;;1.00;1.00;;;;;28.42;37.50;100462.31;5069965;28;46227;-64
2022/06/24 10:18:17;;;;;;;;;0.25;0.25;;;;;28.46;38.07;100458.97;5062241;28;45772;-65
2022/06/24 10:20:44;;;;;;;;;2.50;0.50;;;;;28.61;38.08;100463.47;5066645;28;45591;-65
2022/06/24 10:23:44;;;;;;;;;1.50;1.00;;;;;28.71;38.34;100455.75;5063708;28;45753;-64
2022/06/24 10:26:25;;;;;;;;;1.50;0.50;;;;;28.79;37.43;100457.47;5056895;28;45414;-64
2022/06/24 10:28:59;;;;;;;;;1.50;1.50;;;;;28.97;37.35;100462.34;5057531;27;45438;-65
2022/06/24 10:31:49;;;;;;;;;1.75;1.00;;;;;28.99;35.85;100472.03;5059140;28;45935;-65
2022/06/24 10:34:30;;;;;;;;;1.00;1.00;;;;;29.11;36.89;100466.81;5057040;28;45607;-65
2022/06/24 10:36:59;;;;;;;;;1.00;1.00;;;;;29.23;37.53;100460.72;5057674;28;46232;-64
2022/06/24 10:39:27;;;;;;;;;0.00;0.00;;;;;29.19;37.26;100463.88;5056874;28;45466;-65
2022/06/24 10:41:59;;;;;;;;;2.50;1.00;;;;;28.99;37.43;100455.59;5070071;28;45584;-65
2022/06/24 10:44:25;;;;;;;;;1.25;1.00;;;;;28.71;37.79;100458.50;5056124;28;45524;-65
2022/06/24 10:47:05;;;;;;;;;1.25;1.25;;;;;28.36;37.96;100451.13;5058054;28;45820;-65
2022/06/24 10:52:48;;;;;;;;;0.25;0.25;;;;;28.01;38.15;100444.81;5060676;28;45455;-64
2022/06/24 10:55:28;;;;;;;;;0.00;0.00;;;;;28.05;38.23;100446.13;5063548;28;45554;-65
2022/06/24 10:58:05;;;;;;;;;1.00;1.00;;;;;28.10;38.51;100440.91;5060726;28;48537;-64
2022/06/24 11:00:39;;;;;;;;;1.00;1.00;;;;;28.05;38.49;100443.41;5050006;28;45378;-65
2022/06/24 11:03:04;;;;;;;;;1.00;1.00;;;;;27.93;38.04;100443.06;5060254;28;45769;-65
2022/06/24 11:05:31;;;;;;;;;0.75;0.50;;;;;27.77;38.47;100438.78;5064394;27;45766;-65
2022/06/24 11:07:57;;;;;;;;;0.00;0.00;;;;;27.58;38.69;100453.13;5065216;27;46291;-65
2022/06/24 11:10:24;;;;;;;;;0.00;0.00;;;;;27.38;39.28;100459.25;5063401;28;68703;-65
2022/06/24 11:12:52;;;;;;;;;0.67;0.67;;;;;27.15;40.31;100459.41;5064134;27;45622;-66
2022/06/24 11:15:18;;;;;;;;;1.25;1.25;;;;;26.94;41.26;100471.16;5064954;28;46762;-64
2022/06/24 11:17:44;;;;;;;;;1.00;1.00;;;;;26.75;42.52;100470.69;5062636;28;46030;-65
2022/06/24 11:20:11;;;;;;;;;1.75;0.75;;;;;26.56;42.61;100472.13;5061337;28;45519;-65
2022/06/24 11:22:43;;;;;;;;;1.00;1.00;;;;;26.38;44.01;100475.25;5061340;28;45686;-65
2022/06/24 11:25:11;;;;;;;;;0.00;0.00;;;;;26.29;44.91;100471.75;5064406;28;45819;-66
2022/06/24 11:27:36;;;;;;;;;0.00;0.00;;;;;26.29;45.70;100468.19;5076998;27;46951;-65
2022/06/24 11:30:03;;;;;;;;;2.67;1.00;;;;;26.31;44.77;100456.06;5064078;28;45576;-66
2022/06/24 11:32:28;;;;;;;;;1.25;1.25;;;;;26.37;45.72;100463.50;5060754;28;45473;-66
2022/06/24 11:34:53;;;;;;;;;1.25;1.25;;;;;26.44;45.65;100457.25;5063454;28;45410;-66